< < Back
Terminal Aerodrome Forecast


Current Version              Previous Versions:   1  2  3  4  5  6  7  8  9  

Terminal Aerodrome Forecast

792
FTUS42 KTAE 301700
TAFDHN
TAF
KDHN 301736Z 3018/3118 34011G15KT P6SM FEW250
     FM310000 01004KT P6SM SKC
     FM311500 08006KT P6SM SKC=



Latest METAR

841
SAUS70 KWBC 311700
MTRDHN
METAR KDHN 311653Z 10008KT 10SM CLR 11/M04 A3040 RMK AO2 SLP294
T01111039


USA.gov is the U.S. government's official web portal to all federal, state and local government web resources and services.